sensor_id;sensor_type;location;lat;lon;timestamp;temperature;humidity
1355;DHT22;671;48.972;9.276;2024-01-15T00:01:30;-0.50;99.90
1355;DHT22;671;48.972;9.276;2024-01-15T00:03:56;-0.50;99.90
1355;DHT22;671;48.972;9.276;2024-01-15T00:06:23;-0.50;99.90
1355;DHT22;671;48.972;9.276;2024-01-15T00:08:49;-0.50;99.90
1355;DHT22;671;48.972;9.276;2024-01-15T00:11:16;-0.40;99.90
1355;DHT22;671;48.972;9.276;2024-01-15T00:13:43;-0.40;99.90
1355;DHT22;671;48.972;9.276;2024-01-15T00:16:09;-0.30;99.90
1355;DHT22;671;48.972;9.276;2024-01-15T00:18:36;-0.30;99.90
1355;DHT22;671;48.972;9.276;2024-01-15T00:21:03;-0.30;99.90
1355;DHT22;671;48.972;9.276;2024-01-15T00:23:29;-0.30;99.90
1355;DHT22;671;48.972;9.276;2024-01-15T00:25:56;-0.20;99.90
1355;DHT22;671;48.972;9.276;2024-01-15T00:28:22;-0.20;99.90
1355;DHT22;671;48.972;9.276;2024-01-15T00:30:49;-0.20;99.90
1355;DHT22;671;48.972;9.276;2024-01-15T00:33:15;-0.10;99.90
1355;DHT22;671;48.972;9.276;2024-01-15T00:35:42;-0.10;99.90
1355;DHT22;671;48.972;9.276;2024-01-15T00:38:08;-0.10;99.90
1355;DHT22;671;48.972;9.276;2024-01-15T00:40:35;-0.10;99.90
1355;DHT22;671;48.972;9.276;2024-01-15T00:43:01;-0.10;99.90
1355;DHT22;671;48.972;9.276;2024-01-15T00:45:28;-0.10;99.90
1355;DHT22;671;48.972;9.276;2024-01-15T00:47:55;-0.10;99.90
1355;DHT22;671;48.972;9.276;2024-01-15T00:50:23;-0.10;99.90
1355;DHT22;671;48.972;9.276;2024-01-15T00:52:49;-0.10;99.90
1355;DHT22;671;48.972;9.276;2024-01-15T00:55:15;-0.10;99.90
1355;DHT22;671;48.972;9.276;2024-01-15T00:57:42;-0.10;99.90
1355;DHT22;671;48.972;9.276;2024-01-15T01:00:09;0.00;99.90
1355;DHT22;671;48.972;9.276;2024-01-15T01:02:35;0.00;99.90
1355;DHT22;671;48.972;9.276;2024-01-15T01:05:01;0.00;99.90
1355;DHT22;671;48.972;9.276;2024-01-15T01:07:27;0.00;99.90
1355;DHT22;671;48.972;9.276;2024-01-15T01:09:53;0.00;99.90
1355;DHT22;671;48.972;9.276;2024-01-15T01:12:18;-0.10;99.90
1355;DHT22;671;48.972;9.276;2024-01-15T01:14:45;-0.10;99.90
1355;DHT22;671;48.972;9.276;2024-01-15T01:17:11;-0.10;99.90
1355;DHT22;671;48.972;9.276;2024-01-15T01:19:38;-0.10;99.90
1355;DHT22;671;48.972;9.276;2024-01-15T01:22:04;-0.10;99.90
1355;DHT22;671;48.972;9.276;2024-01-15T01:24:31;-0.10;99.90
1355;DHT22;671;48.972;9.276;2024-01-15T01:26:57;-0.10;99.90
1355;DHT22;671;48.972;9.276;2024-01-15T01:29:24;0.00;99.90
1355;DHT22;671;48.972;9.276;2024-01-15T01:31:50;0.00;99.90
1355;DHT22;671;48.972;9.276;2024-01-15T01:34:17;-0.10;99.90
1355;DHT22;671;48.972;9.276;2024-01-15T01:36:44;-0.10;99.90
1355;DHT22;671;48.972;9.276;2024-01-15T01:39:10;-0.10;99.90
1355;DHT22;671;48.972;9.276;2024-01-15T01:41:38;-0.10;99.90
1355;DHT22;671;48.972;9.276;2024-01-15T01:44:05;-0.10;99.90
1355;DHT22;671;48.972;9.276;2024-01-15T01:46:31;-0.10;99.90
1355;DHT22;671;48.972;9.276;2024-01-15T01:48:58;-0.10;99.90
1355;DHT22;671;48.972;9.276;2024-01-15T01:51:27;-0.10;99.90
1355;DHT22;671;48.972;9.276;2024-01-15T01:53:54;-0.10;99.90
1355;DHT22;671;48.972;9.276;2024-01-15T01:56:21;-0.10;99.90
1355;DHT22;671;48.972;9.276;2024-01-15T01:58:48;-0.10;99.90
1355;DHT22;671;48.972;9.276;2024-01-15T02:01:15;0.00;99.90
1355;DHT22;671;48.972;9.276;2024-01-15T02:03:43;0.00;99.90
1355;DHT22;671;48.972;9.276;2024-01-15T02:06:09;0.00;99.90
1355;DHT22;671;48.972;9.276;2024-01-15T02:08:36;0.00;99.90
1355;DHT22;671;48.972;9.276;2024-01-15T02:11:03;0.00;99.90
1355;DHT22;671;48.972;9.276;2024-01-15T02:13:29;0.00;99.90
1355;DHT22;671;48.972;9.276;2024-01-15T02:15:56;0.10;99.90
1355;DHT22;671;48.972;9.276;2024-01-15T02:18:23;0.10;99.90
1355;DHT22;671;48.972;9.276;2024-01-15T02:20:49;0.10;99.90
1355;DHT22;671;48.972;9.276;2024-01-15T02:23:16;0.20;99.90
1355;DHT22;671;48.972;9.276;2024-01-15T02:25:47;0.20;99.90
1355;DHT22;671;48.972;9.276;2024-01-15T02:28:17;0.20;99.90
1355;DHT22;671;48.972;9.276;2024-01-15T02:30:44;0.20;99.90
1355;DHT22;671;48.972;9.276;2024-01-15T02:33:11;0.20;99.90
1355;DHT22;671;48.972;9.276;2024-01-15T02:35:38;0.20;99.90
1355;DHT22;671;48.972;9.276;2024-01-15T02:38:05;0.20;99.90
1355;DHT22;671;48.972;9.276;2024-01-15T02:40:32;0.20;99.90
1355;DHT22;671;48.972;9.276;2024-01-15T02:42:59;0.20;99.90
1355;DHT22;671;48.972;9.276;2024-01-15T02:45:26;0.30;99.90
1355;DHT22;671;48.972;9.276;2024-01-15T02:47:53;0.20;99.90
1355;DHT22;671;48.972;9.276;2024-01-15T02:50:19;0.30;99.90
1355;DHT22;671;48.972;9.276;2024-01-15T02:52:46;0.30;99.90
1355;DHT22;671;48.972;9.276;2024-01-15T02:55:12;0.30;99.90
1355;DHT22;671;48.972;9.276;2024-01-15T02:57:39;0.30;99.90
1355;DHT22;671;48.972;9.276;2024-01-15T03:00:06;0.30;99.90
1355;DHT22;671;48.972;9.276;2024-01-15T03:02:36;0.30;99.90
1355;DHT22;671;48.972;9.276;2024-01-15T03:05:03;0.40;99.90
1355;DHT22;671;48.972;9.276;2024-01-15T03:07:30;0.40;99.90
1355;DHT22;671;48.972;9.276;2024-01-15T03:09:56;0.40;99.90
1355;DHT22;671;48.972;9.276;2024-01-15T03:12:23;0.40;99.90
1355;DHT22;671;48.972;9.276;2024-01-15T03:14:49;0.40;99.90
1355;DHT22;671;48.972;9.276;2024-01-15T03:17:16;0.40;99.90
1355;DHT22;671;48.972;9.276;2024-01-15T03:19:42;0.40;99.90
1355;DHT22;671;48.972;9.276;2024-01-15T03:22:09;0.40;99.90
1355;DHT22;671;48.972;9.276;2024-01-15T03:24:35;0.40;99.90
1355;DHT22;671;48.972;9.276;2024-01-15T03:27:02;0.40;99.90
1355;DHT22;671;48.972;9.276;2024-01-15T03:29:29;0.40;99.90
1355;DHT22;671;48.972;9.276;2024-01-15T03:31:55;0.40;99.90
1355;DHT22;671;48.972;9.276;2024-01-15T03:34:22;0.40;99.90
1355;DHT22;671;48.972;9.276;2024-01-15T03:36:48;0.40;99.90
1355;DHT22;671;48.972;9.276;2024-01-15T03:39:15;0.40;99.90
1355;DHT22;671;48.972;9.276;2024-01-15T03:41:42;0.40;99.90
1355;DHT22;671;48.972;9.276;2024-01-15T03:44:08;0.40;99.90
1355;DHT22;671;48.972;9.276;2024-01-15T03:46:35;0.40;99.90
1355;DHT22;671;48.972;9.276;2024-01-15T03:49:01;0.40;99.90
1355;DHT22;671;48.972;9.276;2024-01-15T03:51:28;0.40;99.90
1355;DHT22;671;48.972;9.276;2024-01-15T03:53:54;0.40;99.90
1355;DHT22;671;48.972;9.276;2024-01-15T03:56:21;0.40;99.90
1355;DHT22;671;48.972;9.276;2024-01-15T03:58:47;0.40;99.90
1355;DHT22;671;48.972;9.276;2024-01-15T04:01:14;0.40;99.90
1355;DHT22;671;48.972;9.276;2024-01-15T04:03:40;0.40;99.90
1355;DHT22;671;48.972;9.276;2024-01-15T04:06:07;0.40;99.90
1355;DHT22;671;48.972;9.276;2024-01-15T04:08:33;0.40;99.90
1355;DHT22;671;48.972;9.276;2024-01-15T04:11:00;0.40;99.90
1355;DHT22;671;48.972;9.276;2024-01-15T04:13:27;0.40;99.90
1355;DHT22;671;48.972;9.276;2024-01-15T04:15:54;0.40;99.90
1355;DHT22;671;48.972;9.276;2024-01-15T04:18:20;0.40;99.90
1355;DHT22;671;48.972;9.276;2024-01-15T04:20:47;0.40;99.90
1355;DHT22;671;48.972;9.276;2024-01-15T04:23:13;0.40;99.90
1355;DHT22;671;48.972;9.276;2024-01-15T04:25:40;0.40;99.90
1355;DHT22;671;48.972;9.276;2024-01-15T04:28:09;0.40;99.90
1355;DHT22;671;48.972;9.276;2024-01-15T04:30:36;0.40;99.90
1355;DHT22;671;48.972;9.276;2024-01-15T04:33:02;0.50;99.90
1355;DHT22;671;48.972;9.276;2024-01-15T04:35:30;0.50;99.90
1355;DHT22;671;48.972;9.276;2024-01-15T04:37:56;0.50;99.90
1355;DHT22;671;48.972;9.276;2024-01-15T04:40:23;0.50;99.90
1355;DHT22;671;48.972;9.276;2024-01-15T04:42:49;0.50;99.90
1355;DHT22;671;48.972;9.276;2024-01-15T04:45:16;0.50;99.90
1355;DHT22;671;48.972;9.276;2024-01-15T04:47:44;0.50;99.90
1355;DHT22;671;48.972;9.276;2024-01-15T04:50:11;0.50;99.90
1355;DHT22;671;48.972;9.276;2024-01-15T04:52:37;0.50;99.90
1355;DHT22;671;48.972;9.276;2024-01-15T04:55:04;0.50;99.90
1355;DHT22;671;48.972;9.276;2024-01-15T04:57:30;0.50;99.90
1355;DHT22;671;48.972;9.276;2024-01-15T04:59:57;0.60;99.90
1355;DHT22;671;48.972;9.276;2024-01-15T05:02:23;0.60;99.90
1355;DHT22;671;48.972;9.276;2024-01-15T05:04:50;0.60;99.90
1355;DHT22;671;48.972;9.276;2024-01-15T05:07:16;0.60;99.90
1355;DHT22;671;48.972;9.276;2024-01-15T05:09:43;0.60;99.90
1355;DHT22;671;48.972;9.276;2024-01-15T05:12:10;0.60;99.90
1355;DHT22;671;48.972;9.276;2024-01-15T05:14:36;0.60;99.90
1355;DHT22;671;48.972;9.276;2024-01-15T05:17:03;0.60;99.90
1355;DHT22;671;48.972;9.276;2024-01-15T05:19:29;0.70;99.90
1355;DHT22;671;48.972;9.276;2024-01-15T05:21:56;0.70;99.90
1355;DHT22;671;48.972;9.276;2024-01-15T05:24:22;0.70;99.90
1355;DHT22;671;48.972;9.276;2024-01-15T05:26:49;0.70;99.90
1355;DHT22;671;48.972;9.276;2024-01-15T05:29:15;0.80;99.90
1355;DHT22;671;48.972;9.276;2024-01-15T05:31:42;0.70;99.90
1355;DHT22;671;48.972;9.276;2024-01-15T05:34:08;0.80;99.90
1355;DHT22;671;48.972;9.276;2024-01-15T05:36:35;0.80;99.90
1355;DHT22;671;48.972;9.276;2024-01-15T05:39:01;0.90;99.90
1355;DHT22;671;48.972;9.276;2024-01-15T05:41:29;0.90;99.90
1355;DHT22;671;48.972;9.276;2024-01-15T05:43:55;0.90;99.90
1355;DHT22;671;48.972;9.276;2024-01-15T05:46:22;0.90;99.90
1355;DHT22;671;48.972;9.276;2024-01-15T05:48:49;1.00;99.90
1355;DHT22;671;48.972;9.276;2024-01-15T05:51:15;1.00;99.90
1355;DHT22;671;48.972;9.276;2024-01-15T05:53:42;1.00;99.90
1355;DHT22;671;48.972;9.276;2024-01-15T05:56:10;1.00;99.90
1355;DHT22;671;48.972;9.276;2024-01-15T05:58:37;1.00;99.90
1355;DHT22;671;48.972;9.276;2024-01-15T06:01:04;1.00;99.90
1355;DHT22;671;48.972;9.276;2024-01-15T06:03:30;1.00;99.90
1355;DHT22;671;48.972;9.276;2024-01-15T06:05:57;1.00;99.90
1355;DHT22;671;48.972;9.276;2024-01-15T06:08:23;1.00;99.90
1355;DHT22;671;48.972;9.276;2024-01-15T06:10:50;1.00;99.90
1355;DHT22;671;48.972;9.276;2024-01-15T06:13:17;1.10;99.90
1355;DHT22;671;48.972;9.276;2024-01-15T06:15:43;1.10;99.90
1355;DHT22;671;48.972;9.276;2024-01-15T06:18:10;1.10;99.90
1355;DHT22;671;48.972;9.276;2024-01-15T06:20:36;1.10;99.90
1355;DHT22;671;48.972;9.276;2024-01-15T06:23:03;1.10;99.90
1355;DHT22;671;48.972;9.276;2024-01-15T06:25:30;1.10;99.90
1355;DHT22;671;48.972;9.276;2024-01-15T06:27:56;1.20;99.90
1355;DHT22;671;48.972;9.276;2024-01-15T06:30:23;1.20;99.90
1355;DHT22;671;48.972;9.276;2024-01-15T06:32:49;1.20;99.90
1355;DHT22;671;48.972;9.276;2024-01-15T06:35:16;1.20;99.90
1355;DHT22;671;48.972;9.276;2024-01-15T06:37:43;1.20;99.90
1355;DHT22;671;48.972;9.276;2024-01-15T06:40:09;1.20;99.90
1355;DHT22;671;48.972;9.276;2024-01-15T06:42:36;1.20;99.90
1355;DHT22;671;48.972;9.276;2024-01-15T06:45:03;1.20;99.90
1355;DHT22;671;48.972;9.276;2024-01-15T06:47:30;1.20;99.90
1355;DHT22;671;48.972;9.276;2024-01-15T06:49:58;1.30;99.90
1355;DHT22;671;48.972;9.276;2024-01-15T06:52:25;1.30;99.90
1355;DHT22;671;48.972;9.276;2024-01-15T06:54:51;1.30;99.90
1355;DHT22;671;48.972;9.276;2024-01-15T06:57:18;1.30;99.90
1355;DHT22;671;48.972;9.276;2024-01-15T06:59:46;1.30;99.90
1355;DHT22;671;48.972;9.276;2024-01-15T07:02:12;1.40;99.90
1355;DHT22;671;48.972;9.276;2024-01-15T07:04:39;1.40;99.90
1355;DHT22;671;48.972;9.276;2024-01-15T07:07:05;1.40;99.90
1355;DHT22;671;48.972;9.276;2024-01-15T07:09:32;1.40;99.90
1355;DHT22;671;48.972;9.276;2024-01-15T07:11:58;1.40;99.90
1355;DHT22;671;48.972;9.276;2024-01-15T07:14:25;1.50;99.90
1355;DHT22;671;48.972;9.276;2024-01-15T07:16:52;1.50;99.90
1355;DHT22;671;48.972;9.276;2024-01-15T07:19:19;1.40;99.90
1355;DHT22;671;48.972;9.276;2024-01-15T07:21:45;1.50;99.90
1355;DHT22;671;48.972;9.276;2024-01-15T07:24:12;1.50;99.90
1355;DHT22;671;48.972;9.276;2024-01-15T07:26:38;1.50;99.90
1355;DHT22;671;48.972;9.276;2024-01-15T07:29:05;1.50;99.90
1355;DHT22;671;48.972;9.276;2024-01-15T07:31:32;1.50;99.90
1355;DHT22;671;48.972;9.276;2024-01-15T07:33:58;1.50;99.90
1355;DHT22;671;48.972;9.276;2024-01-15T07:36:26;1.50;99.90
1355;DHT22;671;48.972;9.276;2024-01-15T07:38:53;1.50;99.90
1355;DHT22;671;48.972;9.276;2024-01-15T07:41:19;1.60;99.90
1355;DHT22;671;48.972;9.276;2024-01-15T07:43:45;1.60;99.90
1355;DHT22;671;48.972;9.276;2024-01-15T07:46:12;1.60;99.90
1355;DHT22;671;48.972;9.276;2024-01-15T07:48:38;1.50;99.90
1355;DHT22;671;48.972;9.276;2024-01-15T07:51:05;1.60;99.90
1355;DHT22;671;48.972;9.276;2024-01-15T07:53:32;1.60;99.90
1355;DHT22;671;48.972;9.276;2024-01-15T07:55:58;1.60;99.90
1355;DHT22;671;48.972;9.276;2024-01-15T07:58:25;1.60;99.90
1355;DHT22;671;48.972;9.276;2024-01-15T08:00:51;1.60;99.90
1355;DHT22;671;48.972;9.276;2024-01-15T08:03:18;1.60;99.90
1355;DHT22;671;48.972;9.276;2024-01-15T08:05:45;1.60;99.90
1355;DHT22;671;48.972;9.276;2024-01-15T08:08:12;1.60;99.90
1355;DHT22;671;48.972;9.276;2024-01-15T08:10:39;1.60;99.90
1355;DHT22;671;48.972;9.276;2024-01-15T08:13:06;1.60;99.90
1355;DHT22;671;48.972;9.276;2024-01-15T08:15:34;1.60;99.90
1355;DHT22;671;48.972;9.276;2024-01-15T08:18:01;1.70;99.90
1355;DHT22;671;48.972;9.276;2024-01-15T08:20:27;1.70;99.90
1355;DHT22;671;48.972;9.276;2024-01-15T08:22:54;1.70;99.90
1355;DHT22;671;48.972;9.276;2024-01-15T08:25:20;1.80;99.90
1355;DHT22;671;48.972;9.276;2024-01-15T08:27:47;1.80;99.90
1355;DHT22;671;48.972;9.276;2024-01-15T08:30:14;1.80;99.90
1355;DHT22;671;48.972;9.276;2024-01-15T08:32:40;1.90;99.90
1355;DHT22;671;48.972;9.276;2024-01-15T08:35:10;1.90;99.90
1355;DHT22;671;48.972;9.276;2024-01-15T08:37:38;2.00;99.90
1355;DHT22;671;48.972;9.276;2024-01-15T08:40:05;1.90;99.90
1355;DHT22;671;48.972;9.276;2024-01-15T08:42:31;2.00;99.90
1355;DHT22;671;48.972;9.276;2024-01-15T08:44:58;2.10;99.90
1355;DHT22;671;48.972;9.276;2024-01-15T08:47:24;2.10;99.90
1355;DHT22;671;48.972;9.276;2024-01-15T08:49:52;2.20;99.90
1355;DHT22;671;48.972;9.276;2024-01-15T08:52:18;2.20;99.90
1355;DHT22;671;48.972;9.276;2024-01-15T08:54:46;2.20;99.90
1355;DHT22;671;48.972;9.276;2024-01-15T08:57:12;2.20;99.90
1355;DHT22;671;48.972;9.276;2024-01-15T08:59:39;2.20;99.90
1355;DHT22;671;48.972;9.276;2024-01-15T09:02:06;2.30;99.90
1355;DHT22;671;48.972;9.276;2024-01-15T09:04:33;2.30;99.90
1355;DHT22;671;48.972;9.276;2024-01-15T09:07:00;2.40;99.90
1355;DHT22;671;48.972;9.276;2024-01-15T09:09:26;2.40;99.90
1355;DHT22;671;48.972;9.276;2024-01-15T09:11:53;2.30;99.90
1355;DHT22;671;48.972;9.276;2024-01-15T09:14:20;2.40;99.90
1355;DHT22;671;48.972;9.276;2024-01-15T09:16:48;2.40;99.90
1355;DHT22;671;48.972;9.276;2024-01-15T09:19:15;2.40;99.90
1355;DHT22;671;48.972;9.276;2024-01-15T09:21:41;2.50;99.90
1355;DHT22;671;48.972;9.276;2024-01-15T09:24:08;2.50;99.90
1355;DHT22;671;48.972;9.276;2024-01-15T09:26:34;2.60;99.90
1355;DHT22;671;48.972;9.276;2024-01-15T09:29:01;2.60;99.90
1355;DHT22;671;48.972;9.276;2024-01-15T09:31:27;2.60;99.90
1355;DHT22;671;48.972;9.276;2024-01-15T09:33:54;2.70;99.90
1355;DHT22;671;48.972;9.276;2024-01-15T09:36:22;2.70;99.90
1355;DHT22;671;48.972;9.276;2024-01-15T09:38:49;2.70;99.90
1355;DHT22;671;48.972;9.276;2024-01-15T09:41:15;2.60;99.90
1355;DHT22;671;48.972;9.276;2024-01-15T09:43:42;2.70;99.90
1355;DHT22;671;48.972;9.276;2024-01-15T09:46:10;2.80;99.90
1355;DHT22;671;48.972;9.276;2024-01-15T09:48:37;2.80;99.90
1355;DHT22;671;48.972;9.276;2024-01-15T09:51:06;2.80;99.90
1355;DHT22;671;48.972;9.276;2024-01-15T09:53:34;2.80;99.90
1355;DHT22;671;48.972;9.276;2024-01-15T09:56:01;2.80;99.90
1355;DHT22;671;48.972;9.276;2024-01-15T09:58:28;2.80;99.90
1355;DHT22;671;48.972;9.276;2024-01-15T10:00:56;2.80;99.90
1355;DHT22;671;48.972;9.276;2024-01-15T10:03:23;2.80;99.90
1355;DHT22;671;48.972;9.276;2024-01-15T10:05:50;2.80;99.90
1355;DHT22;671;48.972;9.276;2024-01-15T10:08:17;2.80;99.90
1355;DHT22;671;48.972;9.276;2024-01-15T10:10:44;2.80;99.90
1355;DHT22;671;48.972;9.276;2024-01-15T10:13:11;2.80;99.90
1355;DHT22;671;48.972;9.276;2024-01-15T10:15:38;2.80;99.90
1355;DHT22;671;48.972;9.276;2024-01-15T10:18:05;2.80;99.90
1355;DHT22;671;48.972;9.276;2024-01-15T10:20:32;2.70;99.90
1355;DHT22;671;48.972;9.276;2024-01-15T10:22:59;2.70;99.90
1355;DHT22;671;48.972;9.276;2024-01-15T10:25:25;2.70;99.90
1355;DHT22;671;48.972;9.276;2024-01-15T10:28:03;2.70;99.90
1355;DHT22;671;48.972;9.276;2024-01-15T10:30:31;2.70;99.90
1355;DHT22;671;48.972;9.276;2024-01-15T10:32:59;2.80;99.90
1355;DHT22;671;48.972;9.276;2024-01-15T10:35:29;2.80;99.90
1355;DHT22;671;48.972;9.276;2024-01-15T10:37:56;2.80;99.90
1355;DHT22;671;48.972;9.276;2024-01-15T10:40:23;2.90;99.90
1355;DHT22;671;48.972;9.276;2024-01-15T10:42:50;2.90;99.90
1355;DHT22;671;48.972;9.276;2024-01-15T10:45:17;2.90;99.90
1355;DHT22;671;48.972;9.276;2024-01-15T10:47:43;3.00;99.90
1355;DHT22;671;48.972;9.276;2024-01-15T10:50:10;3.00;99.90
1355;DHT22;671;48.972;9.276;2024-01-15T10:52:38;3.00;99.90
1355;DHT22;671;48.972;9.276;2024-01-15T10:55:10;3.00;99.90
1355;DHT22;671;48.972;9.276;2024-01-15T10:57:39;3.00;99.90
1355;DHT22;671;48.972;9.276;2024-01-15T11:00:07;3.00;99.90
1355;DHT22;671;48.972;9.276;2024-01-15T11:02:36;3.00;99.90
1355;DHT22;671;48.972;9.276;2024-01-15T11:05:03;2.90;99.90
1355;DHT22;671;48.972;9.276;2024-01-15T11:07:31;2.80;99.90
1355;DHT22;671;48.972;9.276;2024-01-15T11:09:57;2.80;99.90
1355;DHT22;671;48.972;9.276;2024-01-15T11:12:25;2.70;99.90
1355;DHT22;671;48.972;9.276;2024-01-15T11:14:52;2.60;99.90
1355;DHT22;671;48.972;9.276;2024-01-15T11:17:21;2.60;99.90
1355;DHT22;671;48.972;9.276;2024-01-15T11:19:48;2.60;99.90
1355;DHT22;671;48.972;9.276;2024-01-15T11:24:58;2.40;99.90
1355;DHT22;671;48.972;9.276;2024-01-15T11:30:11;2.30;99.90
1355;DHT22;671;48.972;9.276;2024-01-15T11:32:39;2.30;99.90
1355;DHT22;671;48.972;9.276;2024-01-15T11:35:09;2.30;99.90
1355;DHT22;671;48.972;9.276;2024-01-15T11:38:00;2.30;99.90
1355;DHT22;671;48.972;9.276;2024-01-15T11:43:00;2.40;99.90
1355;DHT22;671;48.972;9.276;2024-01-15T11:45:27;2.30;99.90
1355;DHT22;671;48.972;9.276;2024-01-15T11:50:32;2.30;99.90
1355;DHT22;671;48.972;9.276;2024-01-15T11:53:03;2.30;99.90
1355;DHT22;671;48.972;9.276;2024-01-15T11:55:34;2.40;99.90
1355;DHT22;671;48.972;9.276;2024-01-15T11:58:02;2.40;99.90
1355;DHT22;671;48.972;9.276;2024-01-15T12:00:34;2.40;99.90
1355;DHT22;671;48.972;9.276;2024-01-15T12:03:00;2.40;99.90
1355;DHT22;671;48.972;9.276;2024-01-15T12:05:28;2.40;99.90
1355;DHT22;671;48.972;9.276;2024-01-15T12:07:55;2.40;99.90
1355;DHT22;671;48.972;9.276;2024-01-15T12:10:22;2.40;99.90
1355;DHT22;671;48.972;9.276;2024-01-15T12:15:32;2.40;99.90
1355;DHT22;671;48.972;9.276;2024-01-15T12:18:01;2.50;99.90
1355;DHT22;671;48.972;9.276;2024-01-15T12:20:32;2.50;99.90
1355;DHT22;671;48.972;9.276;2024-01-15T12:22:58;2.50;99.90
1355;DHT22;671;48.972;9.276;2024-01-15T12:25:25;2.50;99.90
1355;DHT22;671;48.972;9.276;2024-01-15T12:27:55;2.50;99.90
1355;DHT22;671;48.972;9.276;2024-01-15T12:30:22;2.50;99.90
1355;DHT22;671;48.972;9.276;2024-01-15T12:32:49;2.50;99.90
1355;DHT22;671;48.972;9.276;2024-01-15T12:35:15;2.50;99.90
1355;DHT22;671;48.972;9.276;2024-01-15T12:37:42;2.50;99.90
1355;DHT22;671;48.972;9.276;2024-01-15T12:40:10;2.40;99.90
1355;DHT22;671;48.972;9.276;2024-01-15T12:42:37;2.40;99.90
1355;DHT22;671;48.972;9.276;2024-01-15T12:45:06;2.30;99.90
1355;DHT22;671;48.972;9.276;2024-01-15T12:47:32;2.30;99.90
1355;DHT22;671;48.972;9.276;2024-01-15T12:49:59;2.30;99.90
1355;DHT22;671;48.972;9.276;2024-01-15T12:52:29;2.30;99.90
1355;DHT22;671;48.972;9.276;2024-01-15T12:54:55;2.40;99.90
1355;DHT22;671;48.972;9.276;2024-01-15T12:57:22;2.40;99.90
1355;DHT22;671;48.972;9.276;2024-01-15T12:59:49;2.40;99.90
1355;DHT22;671;48.972;9.276;2024-01-15T13:02:19;2.30;99.90
1355;DHT22;671;48.972;9.276;2024-01-15T13:04:45;2.30;99.90
1355;DHT22;671;48.972;9.276;2024-01-15T13:07:12;2.30;99.90
1355;DHT22;671;48.972;9.276;2024-01-15T13:09:39;2.30;99.90
1355;DHT22;671;48.972;9.276;2024-01-15T13:12:06;2.20;99.90
1355;DHT22;671;48.972;9.276;2024-01-15T13:14:32;2.20;99.90
1355;DHT22;671;48.972;9.276;2024-01-15T13:16:59;2.20;99.90
1355;DHT22;671;48.972;9.276;2024-01-15T13:19:26;2.10;99.90
1355;DHT22;671;48.972;9.276;2024-01-15T13:21:53;2.10;99.90
1355;DHT22;671;48.972;9.276;2024-01-15T13:24:21;2.10;99.90
1355;DHT22;671;48.972;9.276;2024-01-15T13:26:48;2.10;99.90
1355;DHT22;671;48.972;9.276;2024-01-15T13:29:15;2.10;99.90
1355;DHT22;671;48.972;9.276;2024-01-15T13:31:41;2.10;99.90
1355;DHT22;671;48.972;9.276;2024-01-15T13:34:08;2.10;99.90
1355;DHT22;671;48.972;9.276;2024-01-15T13:36:35;2.20;99.90
1355;DHT22;671;48.972;9.276;2024-01-15T13:39:02;2.20;99.90
1355;DHT22;671;48.972;9.276;2024-01-15T13:41:29;2.30;99.90
1355;DHT22;671;48.972;9.276;2024-01-15T13:43:55;2.30;99.90
1355;DHT22;671;48.972;9.276;2024-01-15T13:46:24;2.30;99.90
1355;DHT22;671;48.972;9.276;2024-01-15T13:48:51;2.30;99.90
1355;DHT22;671;48.972;9.276;2024-01-15T13:51:17;2.30;99.90
1355;DHT22;671;48.972;9.276;2024-01-15T13:53:44;2.30;99.90
1355;DHT22;671;48.972;9.276;2024-01-15T13:56:10;2.30;99.90
1355;DHT22;671;48.972;9.276;2024-01-15T13:58:37;2.30;99.90
1355;DHT22;671;48.972;9.276;2024-01-15T14:01:04;2.20;99.90
1355;DHT22;671;48.972;9.276;2024-01-15T14:03:32;2.20;99.90
1355;DHT22;671;48.972;9.276;2024-01-15T14:06:00;2.30;99.90
1355;DHT22;671;48.972;9.276;2024-01-15T14:08:29;2.30;99.90
1355;DHT22;671;48.972;9.276;2024-01-15T14:10:55;2.30;99.90
1355;DHT22;671;48.972;9.276;2024-01-15T14:13:23;2.30;99.90
1355;DHT22;671;48.972;9.276;2024-01-15T14:15:49;2.30;99.90
1355;DHT22;671;48.972;9.276;2024-01-15T14:18:16;2.20;99.90
1355;DHT22;671;48.972;9.276;2024-01-15T14:20:43;2.30;99.90
1355;DHT22;671;48.972;9.276;2024-01-15T14:23:10;2.20;99.90
1355;DHT22;671;48.972;9.276;2024-01-15T14:25:36;2.20;99.90
1355;DHT22;671;48.972;9.276;2024-01-15T14:28:03;2.20;99.90
1355;DHT22;671;48.972;9.276;2024-01-15T14:30:30;2.10;99.90
1355;DHT22;671;48.972;9.276;2024-01-15T14:32:56;2.10;99.90
1355;DHT22;671;48.972;9.276;2024-01-15T14:35:22;2.10;99.90
1355;DHT22;671;48.972;9.276;2024-01-15T14:37:49;2.10;99.90
1355;DHT22;671;48.972;9.276;2024-01-15T14:40:15;2.00;99.90
1355;DHT22;671;48.972;9.276;2024-01-15T14:42:42;2.00;99.90
1355;DHT22;671;48.972;9.276;2024-01-15T14:45:09;2.00;99.90
1355;DHT22;671;48.972;9.276;2024-01-15T14:47:38;2.00;99.90
1355;DHT22;671;48.972;9.276;2024-01-15T14:50:08;2.10;99.90
1355;DHT22;671;48.972;9.276;2024-01-15T14:52:36;2.10;99.90
1355;DHT22;671;48.972;9.276;2024-01-15T14:55:03;2.10;99.90
1355;DHT22;671;48.972;9.276;2024-01-15T14:57:30;2.10;99.90
1355;DHT22;671;48.972;9.276;2024-01-15T14:59:57;2.00;99.90
1355;DHT22;671;48.972;9.276;2024-01-15T15:02:23;2.00;99.90
1355;DHT22;671;48.972;9.276;2024-01-15T15:04:54;2.00;99.90
1355;DHT22;671;48.972;9.276;2024-01-15T15:07:22;2.00;99.90
1355;DHT22;671;48.972;9.276;2024-01-15T15:09:48;1.90;99.90
1355;DHT22;671;48.972;9.276;2024-01-15T15:12:17;2.00;99.90
1355;DHT22;671;48.972;9.276;2024-01-15T15:14:44;2.00;99.90
1355;DHT22;671;48.972;9.276;2024-01-15T15:17:10;1.90;99.90
1355;DHT22;671;48.972;9.276;2024-01-15T15:19:38;1.90;99.90
1355;DHT22;671;48.972;9.276;2024-01-15T15:22:07;1.90;99.90
1355;DHT22;671;48.972;9.276;2024-01-15T15:24:37;1.80;99.90
1355;DHT22;671;48.972;9.276;2024-01-15T15:27:05;1.80;99.90
1355;DHT22;671;48.972;9.276;2024-01-15T15:29:34;1.80;99.90
1355;DHT22;671;48.972;9.276;2024-01-15T15:32:04;1.80;99.90
1355;DHT22;671;48.972;9.276;2024-01-15T15:34:30;1.70;99.90
1355;DHT22;671;48.972;9.276;2024-01-15T15:36:57;1.70;99.90
1355;DHT22;671;48.972;9.276;2024-01-15T15:39:23;1.70;99.90
1355;DHT22;671;48.972;9.276;2024-01-15T15:41:50;1.80;99.90
1355;DHT22;671;48.972;9.276;2024-01-15T15:44:16;1.80;99.90
1355;DHT22;671;48.972;9.276;2024-01-15T15:46:43;1.80;99.90
1355;DHT22;671;48.972;9.276;2024-01-15T15:49:10;1.80;99.90
1355;DHT22;671;48.972;9.276;2024-01-15T15:51:37;1.80;99.90
1355;DHT22;671;48.972;9.276;2024-01-15T15:54:03;1.80;99.90
1355;DHT22;671;48.972;9.276;2024-01-15T15:56:33;1.80;99.90
1355;DHT22;671;48.972;9.276;2024-01-15T15:59:05;1.80;99.90
1355;DHT22;671;48.972;9.276;2024-01-15T16:01:35;1.70;99.90
1355;DHT22;671;48.972;9.276;2024-01-15T16:04:02;1.70;99.90
1355;DHT22;671;48.972;9.276;2024-01-15T16:06:30;1.70;99.90
1355;DHT22;671;48.972;9.276;2024-01-15T16:08:56;1.70;99.90
1355;DHT22;671;48.972;9.276;2024-01-15T16:11:23;1.70;99.90
1355;DHT22;671;48.972;9.276;2024-01-15T16:13:50;1.60;99.90
1355;DHT22;671;48.972;9.276;2024-01-15T16:16:16;1.60;99.90
1355;DHT22;671;48.972;9.276;2024-01-15T16:18:43;1.50;99.90
1355;DHT22;671;48.972;9.276;2024-01-15T16:21:11;1.50;99.90
1355;DHT22;671;48.972;9.276;2024-01-15T16:23:39;1.40;99.90
1355;DHT22;671;48.972;9.276;2024-01-15T16:26:05;1.40;99.90
1355;DHT22;671;48.972;9.276;2024-01-15T16:28:32;1.30;99.90
1355;DHT22;671;48.972;9.276;2024-01-15T16:30:58;1.20;99.90
1355;DHT22;671;48.972;9.276;2024-01-15T16:33:25;1.10;99.90
1355;DHT22;671;48.972;9.276;2024-01-15T16:35:51;1.00;99.90
1355;DHT22;671;48.972;9.276;2024-01-15T16:38:18;0.90;99.90
1355;DHT22;671;48.972;9.276;2024-01-15T16:40:44;0.90;99.90
1355;DHT22;671;48.972;9.276;2024-01-15T16:43:11;0.90;99.90